Time;durP1;ratioP1;P1;durP2;ratioP2;P2;SDS_P1;SDS_P2;PMS_P1;PMS_P2;Temp;Humidity;BMP_temperature;BMP_pressure;BME280_temperature;BME280_humidity;BME280_pressure;Samples;Min_cycle;Max_cycle;Signal;HPM_P1;HPM_P2
2022/07/01 00:01:41;;;;;;;10.53;9.50;;;;;;;;;;5012099;28;20424;-91
2022/07/01 00:04:07;;;;;;;10.70;9.80;;;;;;;;;;4992498;28;21025;-91
2022/07/01 00:06:33;;;;;;;10.53;9.53;;;;;;;;;;5009924;28;20428;-91
2022/07/01 00:08:59;;;;;;;11.10;10.10;;;;;;;;;;4989125;28;20457;-92
2022/07/01 00:11:27;;;;;;;12.20;11.07;;;;;;;;;;5001857;28;20444;-92
2022/07/01 00:13:53;;;;;;;12.10;10.90;;;;;;;;;;4993661;28;20524;-92
2022/07/01 00:16:19;;;;;;;13.40;12.20;;;;;;;;;;5001491;28;20672;-91
2022/07/01 00:18:45;;;;;;;14.80;13.20;;;;;;;;;;4998607;28;20440;-90
2022/07/01 00:21:12;;;;;;;12.57;11.20;;;;;;;;;;5014107;28;20434;-92
2022/07/01 00:23:38;;;;;;;13.07;11.87;;;;;;;;;;5002434;28;20516;-92
2022/07/01 00:26:04;;;;;;;14.90;13.13;;;;;;;;;;5017042;28;20455;-91
2022/07/01 00:28:30;;;;;;;15.73;14.23;;;;;;;;;;5001711;28;20448;-90
2022/07/01 00:30:56;;;;;;;22.27;15.07;;;;;;;;;;4998260;28;20898;-92
2022/07/01 00:33:22;;;;;;;14.97;13.47;;;;;;;;;;5014682;28;20442;-92
2022/07/01 00:35:48;;;;;;;15.10;13.67;;;;;;;;;;5016683;28;20455;-90
2022/07/01 00:38:14;;;;;;;15.90;14.40;;;;;;;;;;5004975;28;20439;-92
2022/07/01 00:40:40;;;;;;;16.27;14.00;;;;;;;;;;4998720;28;20416;-91
2022/07/01 00:43:06;;;;;;;19.07;16.07;;;;;;;;;;5010395;28;20426;-94
2022/07/01 00:45:32;;;;;;;19.00;16.90;;;;;;;;;;5016845;28;20487;-90
2022/07/01 00:47:58;;;;;;;16.30;14.60;;;;;;;;;;5015732;28;20457;-92
2022/07/01 00:50:24;;;;;;;16.53;14.83;;;;;;;;;;5016066;28;20414;-92
2022/07/01 00:52:50;;;;;;;17.97;16.10;;;;;;;;;;5018539;28;20530;-90
2022/07/01 00:55:17;;;;;;;18.57;16.67;;;;;;;;;;4984743;28;20472;-91
2022/07/01 00:57:43;;;;;;;17.67;15.37;;;;;;;;;;5005121;28;20486;-91
2022/07/01 01:00:24;;;;;;;15.83;14.30;;;;;;;;;;4993893;28;21033;-92
2022/07/01 01:02:50;;;;;;;16.87;14.10;;;;;;;;;;4974287;28;20428;-93
2022/07/01 01:05:17;;;;;;;16.77;15.00;;;;;;;;;;4998001;28;20420;-89
2022/07/01 01:07:44;;;;;;;16.30;13.57;;;;;;;;;;5010407;28;20486;-90
2022/07/01 01:10:10;;;;;;;13.77;12.37;;;;;;;;;;4996089;28;20553;-91
2022/07/01 01:12:36;;;;;;;12.83;11.50;;;;;;;;;;5003947;28;20980;-92
2022/07/01 01:15:02;;;;;;;16.03;14.43;;;;;;;;;;4991414;28;20461;-92
2022/07/01 01:17:28;;;;;;;13.03;11.73;;;;;;;;;;4993745;28;20468;-92
2022/07/01 01:19:54;;;;;;;11.73;10.40;;;;;;;;;;4963793;28;20429;-92
2022/07/01 01:22:20;;;;;;;11.87;10.70;;;;;;;;;;4967376;28;21015;-92
2022/07/01 01:24:47;;;;;;;12.13;10.77;;;;;;;;;;4974953;28;20532;-92
2022/07/01 01:27:13;;;;;;;11.17;10.37;;;;;;;;;;4963666;28;20434;-91
2022/07/01 01:29:39;;;;;;;10.90;9.80;;;;;;;;;;4983824;28;20446;-92
2022/07/01 01:32:06;;;;;;;11.20;10.10;;;;;;;;;;4971754;28;20458;-91
2022/07/01 01:34:32;;;;;;;10.67;9.67;;;;;;;;;;4963601;28;20450;-89
2022/07/01 01:36:59;;;;;;;11.93;10.83;;;;;;;;;;4974691;28;21010;-89
2022/07/01 01:39:25;;;;;;;12.03;10.30;;;;;;;;;;4948391;28;20452;-90
2022/07/01 01:41:51;;;;;;;11.80;10.80;;;;;;;;;;4977070;28;20425;-89
2022/07/01 01:44:18;;;;;;;9.57;8.70;;;;;;;;;;4968413;28;20500;-88
2022/07/01 01:46:44;;;;;;;9.50;8.63;;;;;;;;;;4956487;28;20429;-89
2022/07/01 01:49:10;;;;;;;10.03;9.00;;;;;;;;;;4960227;28;20488;-89
2022/07/01 01:51:36;;;;;;;11.83;10.27;;;;;;;;;;4965384;28;20507;-89
2022/07/01 01:54:02;;;;;;;9.30;8.40;;;;;;;;;;4963477;28;20465;-89
2022/07/01 01:56:29;;;;;;;9.40;8.50;;;;;;;;;;4989227;28;20491;-90
2022/07/01 01:58:55;;;;;;;9.30;8.60;;;;;;;;;;4982514;28;20441;-90
2022/07/01 02:01:22;;;;;;;9.70;8.90;;;;;;;;;;4982831;28;21117;-89
2022/07/01 02:03:49;;;;;;;14.13;11.90;;;;;;;;;;4968700;28;20810;-89
2022/07/01 02:06:17;;;;;;;8.70;7.73;;;;;;;;;;4947071;28;20947;-89
2022/07/01 02:08:43;;;;;;;9.10;8.23;;;;;;;;;;4957732;28;20536;-89
2022/07/01 02:11:10;;;;;;;8.03;7.13;;;;;;;;;;4944249;28;20422;-87
2022/07/01 02:13:37;;;;;;;8.50;7.70;;;;;;;;;;4984899;28;20432;-89
2022/07/01 02:16:05;;;;;;;10.43;7.63;;;;;;;;;;4974295;28;20481;-90
2022/07/01 02:18:32;;;;;;;7.00;6.40;;;;;;;;;;4995665;28;20538;-90
2022/07/01 02:20:58;;;;;;;7.80;7.10;;;;;;;;;;4979918;28;20417;-90
2022/07/01 02:23:27;;;;;;;10.60;7.20;;;;;;;;;;4985216;28;20445;-90
2022/07/01 02:25:53;;;;;;;8.40;7.60;;;;;;;;;;4985578;28;20491;-87
2022/07/01 02:28:19;;;;;;;12.03;8.40;;;;;;;;;;4994073;28;20441;-87
2022/07/01 02:30:45;;;;;;;9.27;7.80;;;;;;;;;;4993428;28;20409;-88
2022/07/01 02:33:11;;;;;;;8.50;7.57;;;;;;;;;;4997488;28;20460;-88
2022/07/01 02:35:38;;;;;;;10.20;8.33;;;;;;;;;;4982998;28;20967;-89
2022/07/01 02:38:04;;;;;;;8.03;7.23;;;;;;;;;;4992331;28;20851;-89
2022/07/01 02:40:30;;;;;;;8.23;7.40;;;;;;;;;;4996498;28;20436;-88
2022/07/01 02:42:56;;;;;;;8.67;7.97;;;;;;;;;;4998277;28;20973;-88
2022/07/01 02:45:25;;;;;;;9.87;6.80;;;;;;;;;;4987038;28;20437;-88
2022/07/01 02:47:51;;;;;;;9.23;7.27;;;;;;;;;;4999339;28;20432;-88
2022/07/01 02:50:20;;;;;;;7.73;7.00;;;;;;;;;;4994719;28;20441;-89
2022/07/01 02:52:46;;;;;;;10.80;7.10;;;;;;;;;;5004362;28;20527;-88
2022/07/01 02:55:13;;;;;;;9.33;7.70;;;;;;;;;;4986876;28;20564;-89
2022/07/01 02:57:40;;;;;;;9.93;7.90;;;;;;;;;;4998029;28;20427;-89
2022/07/01 03:00:07;;;;;;;10.57;7.93;;;;;;;;;;4980300;28;20448;-88
2022/07/01 03:02:33;;;;;;;11.47;8.00;;;;;;;;;;5007439;28;20442;-88
2022/07/01 03:05:00;;;;;;;8.63;7.70;;;;;;;;;;4983167;28;20447;-88
2022/07/01 03:07:26;;;;;;;10.90;8.00;;;;;;;;;;5003480;28;20447;-89
2022/07/01 03:09:52;;;;;;;11.20;8.50;;;;;;;;;;4989987;28;20842;-85
2022/07/01 03:12:34;;;;;;;10.93;8.30;;;;;;;;;;4998668;28;20428;-89
2022/07/01 03:15:00;;;;;;;9.77;8.80;;;;;;;;;;4985729;28;20559;-86
2022/07/01 03:17:27;;;;;;;14.03;9.13;;;;;;;;;;5007135;28;20444;-88
2022/07/01 03:19:54;;;;;;;12.30;11.07;;;;;;;;;;5010516;28;20440;-88
2022/07/01 03:22:24;;;;;;;11.33;9.80;;;;;;;;;;5011966;28;20441;-88
2022/07/01 03:24:50;;;;;;;10.97;9.70;;;;;;;;;;5003718;28;20453;-89
2022/07/01 03:27:16;;;;;;;16.30;9.93;;;;;;;;;;5011005;28;20467;-88
2022/07/01 03:29:42;;;;;;;15.87;10.70;;;;;;;;;;5012190;28;20424;-89
2022/07/01 03:32:09;;;;;;;17.50;11.30;;;;;;;;;;5019576;28;20489;-89
2022/07/01 03:34:38;;;;;;;10.53;9.53;;;;;;;;;;5024804;28;20427;-88
2022/07/01 03:37:05;;;;;;;13.37;10.37;;;;;;;;;;5017276;28;20452;-89
2022/07/01 03:39:31;;;;;;;11.83;10.00;;;;;;;;;;5024277;28;20432;-88
2022/07/01 03:41:56;;;;;;;15.23;11.10;;;;;;;;;;5012194;28;20444;-89
2022/07/01 03:44:22;;;;;;;11.90;9.23;;;;;;;;;;5020339;28;20447;-88
2022/07/01 03:46:48;;;;;;;11.23;10.00;;;;;;;;;;4997293;28;20433;-88
2022/07/01 03:49:14;;;;;;;14.80;10.20;;;;;;;;;;5004535;28;20440;-88
2022/07/01 03:51:40;;;;;;;17.10;11.63;;;;;;;;;;5008401;28;20436;-88
2022/07/01 03:56:51;;;;;;;10.70;9.70;;;;;;;;;;4992545;28;20424;-88
2022/07/01 03:59:17;;;;;;;11.17;10.13;;;;;;;;;;5034358;28;20450;-88
2022/07/01 04:01:43;;;;;;;11.57;10.43;;;;;;;;;;5010141;28;20440;-88
2022/07/01 04:04:09;;;;;;;12.17;10.80;;;;;;;;;;5018181;28;20457;-88
2022/07/01 04:06:36;;;;;;;11.10;10.00;;;;;;;;;;5002585;28;20488;-88
2022/07/01 04:09:02;;;;;;;11.40;10.20;;;;;;;;;;5001977;28;20440;-88
2022/07/01 04:11:28;;;;;;;13.27;10.93;;;;;;;;;;5008457;28;20507;-88
2022/07/01 04:13:54;;;;;;;9.90;9.00;;;;;;;;;;5000253;28;20482;-89
2022/07/01 04:16:29;;;;;;;10.90;9.90;;;;;;;;;;5013709;28;20837;-89
2022/07/01 04:19:01;;;;;;;13.20;9.93;;;;;;;;;;4989519;28;20949;-88
2022/07/01 04:24:18;;;;;;;12.27;9.87;;;;;;;;;;4996625;28;20458;-90
2022/07/01 04:26:44;;;;;;;10.93;9.83;;;;;;;;;;5003510;28;20420;-90
2022/07/01 04:29:10;;;;;;;11.30;9.47;;;;;;;;;;5012020;28;20443;-91
2022/07/01 04:31:36;;;;;;;13.60;9.47;;;;;;;;;;4996305;28;20416;-90
2022/07/01 04:34:02;;;;;;;10.00;9.20;;;;;;;;;;5006006;28;20447;-90
2022/07/01 04:36:28;;;;;;;10.37;9.57;;;;;;;;;;4995785;28;20480;-90
2022/07/01 04:38:54;;;;;;;10.10;9.27;;;;;;;;;;5005621;28;20566;-90
2022/07/01 04:44:05;;;;;;;10.70;9.13;;;;;;;;;;4996968;28;20462;-90
2022/07/01 04:46:34;;;;;;;10.50;9.07;;;;;;;;;;5015538;28;20411;-89
2022/07/01 04:49:00;;;;;;;9.90;8.13;;;;;;;;;;5006518;28;20921;-89
2022/07/01 04:51:29;;;;;;;8.80;8.10;;;;;;;;;;4994937;28;20419;-89
2022/07/01 04:54:00;;;;;;;8.60;7.90;;;;;;;;;;4997611;28;20448;-88
2022/07/01 04:56:32;;;;;;;9.30;8.40;;;;;;;;;;5009147;28;20474;-87
2022/07/01 04:58:58;;;;;;;10.30;8.27;;;;;;;;;;4997111;28;20459;-88
2022/07/01 05:01:34;;;;;;;7.40;6.80;;;;;;;;;;5004611;28;20535;-91
2022/07/01 05:04:00;;;;;;;10.10;9.30;;;;;;;;;;4993526;28;20447;-84
2022/07/01 05:06:26;;;;;;;8.57;7.77;;;;;;;;;;4974790;28;20418;-89
2022/07/01 05:09:02;;;;;;;10.14;8.49;;;;;;;;;;4640168;28;10002811;-88
2022/07/01 05:11:28;;;;;;;9.50;8.70;;;;;;;;;;4988664;28;20874;-85
2022/07/01 05:13:55;;;;;;;8.70;7.93;;;;;;;;;;4985281;28;20435;-89
2022/07/01 05:16:21;;;;;;;7.60;6.90;;;;;;;;;;4994529;28;20476;-90
2022/07/01 05:24:16;;;;;;;6.10;5.50;;;;;;;;;;4991787;28;20455;-91
2022/07/01 05:26:42;;;;;;;8.10;7.30;;;;;;;;;;4980170;28;20497;-91
2022/07/01 05:29:08;;;;;;;7.07;6.57;;;;;;;;;;4996091;28;20443;-89
2022/07/01 05:31:34;;;;;;;7.73;7.13;;;;;;;;;;4990393;28;20595;-91
2022/07/01 05:34:00;;;;;;;7.10;6.60;;;;;;;;;;5026264;28;20435;-92
2022/07/01 05:36:32;;;;;;;7.97;7.30;;;;;;;;;;5023977;28;20515;-92
2022/07/01 05:41:34;;;;;;;8.63;7.70;;;;;;;;;;5181907;23;20474;-91
2022/07/01 05:44:04;;;;;;;8.20;7.70;;;;;;;;;;5025050;28;20705;-92
2022/07/01 05:46:30;;;;;;;8.30;7.50;;;;;;;;;;4989193;28;20508;-88
2022/07/01 05:49:06;;;;;;;;;;;;;;;;;;;;;
2022/07/01 05:51:35;;;;;;;8.67;7.70;;;;;;;;;;5011328;28;20444;-92
2022/07/01 05:54:01;;;;;;;7.00;6.57;;;;;;;;;;5005883;28;20472;-93
2022/07/01 05:56:31;;;;;;;10.23;7.03;;;;;;;;;;4995967;28;20588;-90
2022/07/01 05:59:06;;;;;;;7.80;7.30;;;;;;;;;;4988102;28;20456;-92
2022/07/01 06:01:38;;;;;;;7.87;7.00;;;;;;;;;;4983872;28;20479;-92
2022/07/01 06:04:14;;;;;;;7.10;6.57;;;;;;;;;;4951732;28;20465;-92
2022/07/01 06:06:41;;;;;;;6.10;5.80;;;;;;;;;;4981023;28;20432;-89
2022/07/01 06:09:10;;;;;;;5.70;5.37;;;;;;;;;;4981140;28;20448;-94
2022/07/01 06:11:43;;;;;;;7.03;6.60;;;;;;;;;;4969498;28;20411;-95
2022/07/01 06:14:15;;;;;;;6.10;5.70;;;;;;;;;;4972554;28;20441;-91
2022/07/01 06:16:44;;;;;;;6.87;6.27;;;;;;;;;;4973747;28;20491;-91
2022/07/01 06:19:10;;;;;;;6.40;6.00;;;;;;;;;;4974969;28;20460;-92
2022/07/01 06:21:39;;;;;;;6.00;5.60;;;;;;;;;;4979839;28;20425;-90
2022/07/01 06:24:15;;;;;;;5.77;5.23;;;;;;;;;;5006982;28;20452;-94
2022/07/01 06:26:48;;;;;;;7.60;6.57;;;;;;;;;;4970370;28;20417;-91
2022/07/01 06:29:15;;;;;;;8.83;8.00;;;;;;;;;;4976485;28;20441;-89
2022/07/01 06:31:44;;;;;;;7.47;6.97;;;;;;;;;;5012777;28;20446;-92
2022/07/01 06:34:24;;;;;;;8.13;7.20;;;;;;;;;;4993092;28;20445;-88
2022/07/01 06:36:50;;;;;;;7.87;7.17;;;;;;;;;;4962471;28;20453;-89
2022/07/01 06:44:29;;;;;;;6.90;6.57;;;;;;;;;;5597079;22;23060;-91
2022/07/01 06:47:04;;;;;;;6.80;6.40;;;;;;;;;;4977636;28;20433;-91
2022/07/01 06:49:39;;;;;;;8.13;7.43;;;;;;;;;;4964173;28;20428;-90
2022/07/01 06:55:12;;;;;;;6.37;5.97;;;;;;;;;;5316210;22;20446;-89
2022/07/01 07:00:13;;;;;;;7.47;6.90;;;;;;;;;;4991763;28;20469;-93
2022/07/01 07:02:39;;;;;;;7.77;7.17;;;;;;;;;;4986269;28;20656;-89
2022/07/01 07:05:05;;;;;;;7.73;7.10;;;;;;;;;;4976573;28;20479;-90
2022/07/01 07:07:31;;;;;;;7.90;7.27;;;;;;;;;;4979867;28;20459;-91
2022/07/01 07:09:57;;;;;;;7.23;6.73;;;;;;;;;;4978255;28;20459;-89
2022/07/01 07:12:23;;;;;;;9.07;7.57;;;;;;;;;;4982426;28;20475;-89
2022/07/01 07:14:49;;;;;;;9.10;7.43;;;;;;;;;;4968233;28;20472;-87
2022/07/01 07:17:15;;;;;;;9.60;7.97;;;;;;;;;;4949591;29;20505;-89
2022/07/01 07:19:41;;;;;;;9.10;7.10;;;;;;;;;;4985063;28;20463;-86
2022/07/01 07:22:08;;;;;;;6.70;6.20;;;;;;;;;;4964512;28;20425;-89
2022/07/01 07:24:34;;;;;;;7.43;6.93;;;;;;;;;;4976730;28;20468;-88
2022/07/01 07:27:00;;;;;;;6.70;6.20;;;;;;;;;;4988971;28;20393;-87
2022/07/01 07:29:26;;;;;;;7.57;6.97;;;;;;;;;;4985179;28;20532;-88
2022/07/01 07:31:52;;;;;;;7.13;6.60;;;;;;;;;;4958548;28;20480;-88
2022/07/01 07:34:18;;;;;;;8.13;7.10;;;;;;;;;;4970855;28;20456;-91
2022/07/01 07:36:44;;;;;;;7.60;6.90;;;;;;;;;;4960323;28;20461;-90
2022/07/01 07:39:10;;;;;;;6.20;5.80;;;;;;;;;;4974392;28;20548;-88
2022/07/01 07:41:36;;;;;;;7.43;6.93;;;;;;;;;;4977892;28;20408;-87
2022/07/01 07:44:02;;;;;;;6.30;6.00;;;;;;;;;;4973304;28;20479;-88
2022/07/01 07:46:28;;;;;;;6.20;5.80;;;;;;;;;;4958493;28;20413;-87
2022/07/01 07:48:54;;;;;;;6.40;5.73;;;;;;;;;;4979759;28;20428;-90
2022/07/01 07:51:22;;;;;;;5.80;5.50;;;;;;;;;;4976927;28;20483;-87
2022/07/01 07:53:49;;;;;;;5.50;5.30;;;;;;;;;;4978581;28;20770;-89
2022/07/01 07:56:14;;;;;;;4.90;4.80;;;;;;;;;;4959306;28;20937;-91
2022/07/01 07:58:43;;;;;;;5.70;5.50;;;;;;;;;;4624287;28;10000591;-92
2022/07/01 08:01:09;;;;;;;5.97;5.77;;;;;;;;;;4936773;29;20207;-93
2022/07/01 08:03:37;;;;;;;7.30;6.80;;;;;;;;;;4971813;28;20417;-94
2022/07/01 08:06:03;;;;;;;6.40;6.10;;;;;;;;;;4954807;28;20585;-92
2022/07/01 08:08:29;;;;;;;6.47;6.17;;;;;;;;;;4969394;28;20711;-91
2022/07/01 08:10:55;;;;;;;5.87;5.67;;;;;;;;;;4985905;28;20420;-89
2022/07/01 08:13:21;;;;;;;5.00;4.90;;;;;;;;;;4968505;28;20821;-86
2022/07/01 08:15:47;;;;;;;4.60;4.30;;;;;;;;;;4952368;28;20465;-87
2022/07/01 08:18:13;;;;;;;4.70;4.50;;;;;;;;;;4950525;28;20435;-86
2022/07/01 08:20:39;;;;;;;5.00;4.80;;;;;;;;;;4955373;28;20425;-86
2022/07/01 08:23:05;;;;;;;5.27;4.93;;;;;;;;;;4943263;28;20438;-86
2022/07/01 08:25:31;;;;;;;4.13;4.03;;;;;;;;;;4936431;28;20449;-92
2022/07/01 08:27:57;;;;;;;5.17;4.87;;;;;;;;;;4972693;28;20987;-92
2022/07/01 08:30:23;;;;;;;4.33;4.03;;;;;;;;;;4972464;28;20473;-90
2022/07/01 08:32:49;;;;;;;6.00;4.80;;;;;;;;;;4993415;28;20429;-92
2022/07/01 08:35:15;;;;;;;3.53;3.43;;;;;;;;;;4971745;28;20476;-88
2022/07/01 08:37:42;;;;;;;3.67;3.57;;;;;;;;;;4962677;28;21089;-89
2022/07/01 08:40:08;;;;;;;3.23;2.97;;;;;;;;;;4952474;28;20445;-89
2022/07/01 08:42:35;;;;;;;3.33;3.17;;;;;;;;;;4978712;28;21042;-90
2022/07/01 08:45:01;;;;;;;3.40;3.30;;;;;;;;;;4962097;28;20438;-85
2022/07/01 08:47:34;;;;;;;3.60;3.40;;;;;;;;;;4972229;28;20505;-90
2022/07/01 08:50:07;;;;;;;3.60;3.20;;;;;;;;;;4935387;29;20451;-90
2022/07/01 08:52:39;;;;;;;3.97;3.77;;;;;;;;;;4956647;29;21086;-89
2022/07/01 08:55:05;;;;;;;5.13;4.77;;;;;;;;;;4974775;28;20457;-89
2022/07/01 08:57:31;;;;;;;5.00;4.80;;;;;;;;;;4973816;28;20512;-88
2022/07/01 09:00:05;;;;;;;4.03;3.83;;;;;;;;;;4957125;28;20514;-89
2022/07/01 09:02:53;;;;;;;3.70;3.57;;;;;;;;;;4954547;29;20439;-90
2022/07/01 09:05:25;;;;;;;3.70;3.50;;;;;;;;;;4951640;29;20459;-90
2022/07/01 09:08:02;;;;;;;4.20;4.00;;;;;;;;;;4931664;29;20428;-90
2022/07/01 09:10:33;;;;;;;3.27;3.07;;;;;;;;;;4973170;29;20490;-91
2022/07/01 09:13:08;;;;;;;2.67;2.63;;;;;;;;;;4951947;28;20439;-89
2022/07/01 09:15:35;;;;;;;2.87;2.77;;;;;;;;;;4974162;29;20461;-92
2022/07/01 09:18:17;;;;;;;2.00;1.90;;;;;;;;;;4954505;28;20467;-89
2022/07/01 09:20:44;;;;;;;2.50;2.30;;;;;;;;;;4959500;29;20436;-90
2022/07/01 09:23:20;;;;;;;4.93;3.30;;;;;;;;;;4963581;29;20529;-88
2022/07/01 09:25:47;;;;;;;3.07;2.37;;;;;;;;;;4970422;29;20854;-88
2022/07/01 09:28:13;;;;;;;2.23;2.13;;;;;;;;;;4950708;29;20434;-92
2022/07/01 09:30:41;;;;;;;1.90;1.87;;;;;;;;;;4963607;29;20541;-92
2022/07/01 09:33:30;;;;;;;5.43;2.40;;;;;;;;;;4952880;28;20431;-94
2022/07/01 09:35:56;;;;;;;2.17;2.03;;;;;;;;;;4960269;29;20486;-93
2022/07/01 09:38:23;;;;;;;2.07;1.90;;;;;;;;;;4954359;29;20466;-88
2022/07/01 09:40:59;;;;;;;1.60;1.60;;;;;;;;;;4966347;29;20457;-88
2022/07/01 09:43:33;;;;;;;3.20;3.07;;;;;;;;;;4964562;28;20511;-90
2022/07/01 09:46:01;;;;;;;2.60;2.40;;;;;;;;;;4955648;29;20442;-87
2022/07/01 09:48:42;;;;;;;2.13;2.03;;;;;;;;;;4958946;28;20453;-91
2022/07/01 09:51:09;;;;;;;3.33;3.20;;;;;;;;;;4940996;29;20444;-88
2022/07/01 09:53:35;;;;;;;2.30;2.30;;;;;;;;;;4956209;28;20451;-88
2022/07/01 09:56:03;;;;;;;2.40;2.23;;;;;;;;;;4955712;29;20513;-89
2022/07/01 09:58:32;;;;;;;2.30;2.30;;;;;;;;;;4956982;29;20784;-86
2022/07/01 10:00:58;;;;;;;3.97;2.43;;;;;;;;;;4955975;28;20537;-90
2022/07/01 10:03:26;;;;;;;2.80;2.37;;;;;;;;;;4960711;29;20485;-90
2022/07/01 10:05:58;;;;;;;2.17;2.07;;;;;;;;;;4948596;29;20438;-88
2022/07/01 10:08:34;;;;;;;2.27;2.27;;;;;;;;;;4956826;29;20980;-89
2022/07/01 10:11:19;;;;;;;2.07;1.97;;;;;;;;;;4918871;29;20424;-86
2022/07/01 10:13:45;;;;;;;1.70;1.70;;;;;;;;;;4954155;29;20430;-88
2022/07/01 10:16:12;;;;;;;2.10;1.90;;;;;;;;;;4959998;29;20461;-87
2022/07/01 10:18:38;;;;;;;2.40;2.30;;;;;;;;;;4965006;29;20415;-89
2022/07/01 10:21:11;;;;;;;1.33;1.33;;;;;;;;;;4959962;29;20422;-92
2022/07/01 10:23:44;;;;;;;1.50;1.50;;;;;;;;;;4937652;28;20436;-89
2022/07/01 10:26:13;;;;;;;4.90;2.10;;;;;;;;;;4936192;29;20478;-88
2022/07/01 10:28:49;;;;;;;1.60;1.50;;;;;;;;;;4946128;29;20730;-90
2022/07/01 10:31:16;;;;;;;1.63;1.63;;;;;;;;;;4928798;29;20434;-89
2022/07/01 10:33:45;;;;;;;1.87;1.83;;;;;;;;;;4937161;29;20459;-90
2022/07/01 10:36:20;;;;;;;3.43;1.53;;;;;;;;;;4941865;29;20623;-90
2022/07/01 10:39:01;;;;;;;1.60;1.57;;;;;;;;;;4927134;29;20502;-90
2022/07/01 10:41:29;;;;;;;1.30;1.30;;;;;;;;;;4938565;29;20458;-89
2022/07/01 10:43:55;;;;;;;1.23;1.23;;;;;;;;;;4936226;29;20462;-89
2022/07/01 10:47:01;;;;;;;1.50;1.50;;;;;;;;;;4935738;29;20486;-90
2022/07/01 10:49:35;;;;;;;1.10;1.10;;;;;;;;;;4235704;28;10000688;-90
2022/07/01 10:52:01;;;;;;;1.27;1.27;;;;;;;;;;4926558;28;20211;-90
2022/07/01 10:54:36;;;;;;;1.10;1.00;;;;;;;;;;4948938;29;20437;-90
2022/07/01 10:57:22;;;;;;;1.00;1.00;;;;;;;;;;4939132;29;20439;-90
2022/07/01 10:59:56;;;;;;;1.03;1.00;;;;;;;;;;4915214;29;20479;-92
2022/07/01 11:02:25;;;;;;;1.47;1.00;;;;;;;;;;4934716;29;20449;-88
2022/07/01 11:04:52;;;;;;;1.20;1.20;;;;;;;;;;4952124;28;20775;-91
2022/07/01 11:07:18;;;;;;;1.63;1.53;;;;;;;;;;4950888;29;20458;-86
2022/07/01 11:09:44;;;;;;;1.20;1.20;;;;;;;;;;4620138;29;10000719;-89
2022/07/01 11:12:11;;;;;;;1.63;1.53;;;;;;;;;;4602706;29;10000429;-88
2022/07/01 11:14:37;;;;;;;1.30;1.30;;;;;;;;;;4948000;29;20428;-88
2022/07/01 11:17:04;;;;;;;2.63;1.40;;;;;;;;;;4948002;29;20807;-93
2022/07/01 11:19:30;;;;;;;2.03;1.93;;;;;;;;;;4929608;29;20447;-92
2022/07/01 11:21:56;;;;;;;1.20;1.20;;;;;;;;;;4939119;29;20534;-92
2022/07/01 11:24:23;;;;;;;1.83;1.80;;;;;;;;;;4939394;29;20442;-92
2022/07/01 11:26:49;;;;;;;1.40;1.40;;;;;;;;;;4934178;29;20576;-88
2022/07/01 11:29:24;;;;;;;1.43;1.33;;;;;;;;;;4940009;29;20454;-92
2022/07/01 11:31:50;;;;;;;1.53;1.53;;;;;;;;;;4933153;29;20590;-87
2022/07/01 11:34:16;;;;;;;1.97;1.87;;;;;;;;;;4941374;29;20477;-91
2022/07/01 11:39:32;;;;;;;1.93;1.83;;;;;;;;;;4923851;29;20489;-90
2022/07/01 11:42:00;;;;;;;1.92;1.92;;;;;;;;;;4587437;29;10000025;-90
2022/07/01 11:44:32;;;;;;;1.77;1.67;;;;;;;;;;4928477;29;20190;-90
2022/07/01 11:46:58;;;;;;;1.63;1.63;;;;;;;;;;4938061;29;20466;-91
2022/07/01 11:49:24;;;;;;;1.80;1.70;;;;;;;;;;4926807;29;20439;-91
2022/07/01 11:51:57;;;;;;;1.67;1.60;;;;;;;;;;4943581;29;20491;-90
2022/07/01 11:54:23;;;;;;;1.60;1.50;;;;;;;;;;4929683;28;20515;-90
2022/07/01 11:56:49;;;;;;;2.00;1.40;;;;;;;;;;4928911;29;20478;-90
2022/07/01 11:59:15;;;;;;;2.20;1.40;;;;;;;;;;4938407;29;20486;-91
2022/07/01 12:01:41;;;;;;;1.90;1.80;;;;;;;;;;4934868;29;20466;-91
2022/07/01 12:04:08;;;;;;;1.20;1.20;;;;;;;;;;4928027;29;20480;-90
2022/07/01 12:06:35;;;;;;;1.57;1.57;;;;;;;;;;4939671;29;20424;-90
2022/07/01 12:09:01;;;;;;;1.83;1.60;;;;;;;;;;4944086;29;20449;-88
2022/07/01 12:11:28;;;;;;;1.50;1.50;;;;;;;;;;4933038;29;20431;-87
2022/07/01 12:13:56;;;;;;;1.70;1.70;;;;;;;;;;4934775;29;20570;-90
2022/07/01 12:16:22;;;;;;;1.63;1.43;;;;;;;;;;4935392;29;20467;-90
2022/07/01 12:18:52;;;;;;;1.13;1.03;;;;;;;;;;4939242;29;20449;-92
2022/07/01 12:21:18;;;;;;;1.67;1.17;;;;;;;;;;4939263;29;20673;-90
2022/07/01 12:24:04;;;;;;;1.50;1.00;;;;;;;;;;4935741;29;20898;-93
2022/07/01 12:26:30;;;;;;;0.87;0.87;;;;;;;;;;4942880;29;20433;-89
2022/07/01 12:28:56;;;;;;;1.23;0.80;;;;;;;;;;4939843;29;20857;-90
2022/07/01 12:31:23;;;;;;;1.00;1.00;;;;;;;;;;4919872;29;20885;-91
2022/07/01 12:33:51;;;;;;;2.70;1.60;;;;;;;;;;4933884;29;20702;-92
2022/07/01 12:36:17;;;;;;;0.70;0.70;;;;;;;;;;4936895;29;20831;-91
2022/07/01 12:38:44;;;;;;;1.00;1.00;;;;;;;;;;4935146;29;20466;-90
2022/07/01 12:41:29;;;;;;;1.53;0.87;;;;;;;;;;4947195;29;20458;-91
2022/07/01 12:43:55;;;;;;;0.80;0.80;;;;;;;;;;4932483;29;20439;-90
2022/07/01 12:46:28;;;;;;;1.83;1.10;;;;;;;;;;4937826;29;20458;-90
2022/07/01 12:48:54;;;;;;;0.87;0.83;;;;;;;;;;4928933;29;20479;-87
2022/07/01 12:51:23;;;;;;;3.17;1.33;;;;;;;;;;4953630;29;20439;-93
2022/07/01 12:53:49;;;;;;;1.27;1.27;;;;;;;;;;4946376;29;20462;-92
2022/07/01 12:56:26;;;;;;;1.80;1.00;;;;;;;;;;4926064;29;20551;-93
2022/07/01 12:58:52;;;;;;;0.87;0.87;;;;;;;;;;4939516;29;20490;-91
2022/07/01 13:01:19;;;;;;;1.00;1.00;;;;;;;;;;4929838;29;20455;-89
2022/07/01 13:03:45;;;;;;;1.37;1.27;;;;;;;;;;4930920;29;20943;-88
2022/07/01 13:06:11;;;;;;;1.10;1.00;;;;;;;;;;4931275;29;20822;-91
2022/07/01 13:08:38;;;;;;;0.97;0.97;;;;;;;;;;4941479;29;20435;-91
2022/07/01 13:11:03;;;;;;;0.80;0.80;;;;;;;;;;4930655;29;20423;-89
2022/07/01 13:13:29;;;;;;;1.03;1.03;;;;;;;;;;4942195;29;20971;-89
2022/07/01 13:15:55;;;;;;;1.30;1.30;;;;;;;;;;4932721;29;20530;-88
2022/07/01 13:18:22;;;;;;;0.70;0.70;;;;;;;;;;4930241;29;20439;-92
2022/07/01 13:20:48;;;;;;;1.50;1.40;;;;;;;;;;4934228;29;20447;-89
2022/07/01 13:23:14;;;;;;;1.30;1.30;;;;;;;;;;4940518;29;20445;-90
2022/07/01 13:25:40;;;;;;;0.83;0.83;;;;;;;;;;4930072;29;20450;-90
2022/07/01 13:28:06;;;;;;;0.80;0.80;;;;;;;;;;4929256;28;20965;-92
2022/07/01 13:30:32;;;;;;;0.77;0.77;;;;;;;;;;4921590;29;20458;-87
2022/07/01 13:32:59;;;;;;;1.53;1.00;;;;;;;;;;4932299;29;20570;-87
2022/07/01 13:35:26;;;;;;;0.90;0.90;;;;;;;;;;4924760;29;20519;-88
2022/07/01 13:37:52;;;;;;;1.07;1.07;;;;;;;;;;4936214;29;20435;-89
2022/07/01 13:40:18;;;;;;;0.50;0.50;;;;;;;;;;4939354;29;20439;-89
2022/07/01 13:42:44;;;;;;;2.63;0.60;;;;;;;;;;4948403;29;20556;-88
2022/07/01 13:45:11;;;;;;;0.70;0.70;;;;;;;;;;4943639;29;20451;-89
2022/07/01 13:47:37;;;;;;;1.00;1.00;;;;;;;;;;4940919;29;20443;-89
2022/07/01 13:50:03;;;;;;;1.20;1.20;;;;;;;;;;4958695;29;20443;-88
2022/07/01 13:52:32;;;;;;;1.00;1.00;;;;;;;;;;4946717;29;20455;-92
2022/07/01 13:54:58;;;;;;;2.50;1.00;;;;;;;;;;4940217;29;21016;-87
2022/07/01 13:57:29;;;;;;;1.43;1.00;;;;;;;;;;4959133;28;20454;-89
2022/07/01 13:59:57;;;;;;;0.93;0.93;;;;;;;;;;4946734;29;20460;-89
2022/07/01 14:02:23;;;;;;;0.70;0.70;;;;;;;;;;4945446;29;20459;-87
2022/07/01 14:04:49;;;;;;;1.33;1.00;;;;;;;;;;4958666;29;20431;-89
2022/07/01 14:07:16;;;;;;;0.80;0.80;;;;;;;;;;4945487;29;20415;-87
2022/07/01 14:09:43;;;;;;;0.90;0.90;;;;;;;;;;4962760;28;20469;-89
2022/07/01 14:12:15;;;;;;;0.80;0.80;;;;;;;;;;4949793;29;20436;-91
2022/07/01 14:14:43;;;;;;;0.70;0.70;;;;;;;;;;4938451;28;20467;-89
2022/07/01 14:17:09;;;;;;;2.77;0.90;;;;;;;;;;4948002;29;20451;-89
2022/07/01 14:19:58;;;;;;;0.80;0.80;;;;;;;;;;4949033;29;20435;-90
2022/07/01 14:22:37;;;;;;;;;;;;;;;;;;;;;
2022/07/01 14:25:09;;;;;;;0.60;0.60;;;;;;;;;;4930699;29;20459;-90
2022/07/01 14:27:41;;;;;;;1.53;1.53;;;;;;;;;;4964665;29;20435;-88
2022/07/01 14:30:41;;;;;;;2.20;0.80;;;;;;;;;;4964652;29;20413;-90
2022/07/01 14:33:43;;;;;;;1.23;0.90;;;;;;;;;;4927916;29;20442;-91
2022/07/01 14:36:31;;;;;;;1.30;1.20;;;;;;;;;;4941061;29;20523;-91
2022/07/01 14:39:32;;;;;;;0.97;0.97;;;;;;;;;;4951281;29;20455;-90
2022/07/01 14:45:19;;;;;;;1.47;1.47;;;26.60;53.90;;;;;;4936147;28;20436;-91
2022/07/01 14:51:13;;;;;;;0.90;0.90;;;26.20;54.10;;;;;;4961269;28;20449;-90
2022/07/01 14:53:40;;;;;;;0.93;0.93;;;25.60;57.80;;;;;;4952419;29;20454;-91
2022/07/01 14:56:12;;;;;;;0.83;0.83;;;25.90;57.60;;;;;;4943736;29;20452;-92
2022/07/01 14:58:52;;;;;;;0.90;0.90;;;25.80;59.50;;;;;;4969633;29;20521;-91
2022/07/01 15:01:46;;;;;;;1.00;1.00;;;;;;;;;;4945741;28;20428;-88
2022/07/01 15:08:07;;;;;;;0.80;0.80;;;24.80;59.80;;;;;;4920347;29;20446;-90
2022/07/01 15:10:43;;;;;;;1.33;0.93;;;24.70;57.80;;;;;;4959446;28;20423;-91
2022/07/01 15:13:14;;;;;;;1.13;0.90;;;24.80;58.20;;;;;;4949593;29;20414;-88
2022/07/01 15:16:04;;;;;;;1.10;1.10;;;24.60;59.20;;;;;;4951785;28;20526;-90
2022/07/01 15:18:37;;;;;;;1.70;1.13;;;24.40;60.40;;;;;;4956014;29;20447;-92
2022/07/01 15:21:10;;;;;;;1.30;1.30;;;24.00;66.80;;;;;;5212481;23;22420;-90
2022/07/01 15:23:36;;;;;;;1.43;0.90;;;;;;;;;;4973529;29;20536;-88